sensor_id;sensor_type;location;lat;lon;timestamp;pressure;altitude;pressure_sealevel;temperature;humidity
17521;BME280;8878;-33.370;-70.552;2023-02-22T00:01:20;91858.75;;;28.95;25.15
17521;BME280;8878;-33.370;-70.552;2023-02-22T00:04:01;91858.38;;;29.03;25.62
17521;BME280;8878;-33.370;-70.552;2023-02-22T00:06:33;91857.78;;;28.30;26.04
17521;BME280;8878;-33.370;-70.552;2023-02-22T00:09:03;91860.50;;;28.30;26.03
17521;BME280;8878;-33.370;-70.552;2023-02-22T00:11:35;91858.56;;;28.31;25.99
17521;BME280;8878;-33.370;-70.552;2023-02-22T00:14:04;91858.03;;;28.00;25.78
17521;BME280;8878;-33.370;-70.552;2023-02-22T00:16:33;91868.25;;;28.25;26.05
17521;BME280;8878;-33.370;-70.552;2023-02-22T00:19:03;91869.44;;;28.27;26.01
17521;BME280;8878;-33.370;-70.552;2023-02-22T00:21:34;91876.00;;;28.30;26.64
17521;BME280;8878;-33.370;-70.552;2023-02-22T00:24:05;91878.28;;;28.21;27.58
17521;BME280;8878;-33.370;-70.552;2023-02-22T00:26:50;91884.81;;;28.13;27.67
17521;BME280;8878;-33.370;-70.552;2023-02-22T00:29:24;91873.50;;;28.00;27.96
17521;BME280;8878;-33.370;-70.552;2023-02-22T00:31:54;91876.94;;;27.86;28.86
17521;BME280;8878;-33.370;-70.552;2023-02-22T00:34:24;91881.47;;;27.68;27.98
17521;BME280;8878;-33.370;-70.552;2023-02-22T00:36:55;91876.25;;;27.45;28.12
17521;BME280;8878;-33.370;-70.552;2023-02-22T00:39:28;91882.75;;;27.37;28.59
17521;BME280;8878;-33.370;-70.552;2023-02-22T00:41:58;91874.94;;;27.25;28.02
17521;BME280;8878;-33.370;-70.552;2023-02-22T00:44:30;91886.03;;;27.53;27.27
17521;BME280;8878;-33.370;-70.552;2023-02-22T00:47:02;91891.16;;;27.21;27.58
17521;BME280;8878;-33.370;-70.552;2023-02-22T00:49:32;91892.84;;;26.59;28.79
17521;BME280;8878;-33.370;-70.552;2023-02-22T00:52:09;91895.47;;;26.89;28.79
17521;BME280;8878;-33.370;-70.552;2023-02-22T00:54:39;91908.94;;;26.78;28.41
17521;BME280;8878;-33.370;-70.552;2023-02-22T00:57:09;91906.22;;;26.78;29.07
17521;BME280;8878;-33.370;-70.552;2023-02-22T00:59:38;91914.69;;;26.77;28.45
17521;BME280;8878;-33.370;-70.552;2023-02-22T01:02:08;91920.00;;;26.66;28.47
17521;BME280;8878;-33.370;-70.552;2023-02-22T01:04:38;91920.47;;;26.75;28.72
17521;BME280;8878;-33.370;-70.552;2023-02-22T01:07:09;91921.53;;;26.64;28.72
17521;BME280;8878;-33.370;-70.552;2023-02-22T01:09:39;91922.31;;;26.64;28.41
17521;BME280;8878;-33.370;-70.552;2023-02-22T01:12:10;91927.78;;;26.71;28.91
17521;BME280;8878;-33.370;-70.552;2023-02-22T01:14:39;91939.88;;;26.81;28.26
17521;BME280;8878;-33.370;-70.552;2023-02-22T01:17:10;91928.78;;;26.93;28.56
17521;BME280;8878;-33.370;-70.552;2023-02-22T01:19:39;91934.69;;;27.02;28.86
17521;BME280;8878;-33.370;-70.552;2023-02-22T01:22:10;91931.50;;;26.60;29.45
17521;BME280;8878;-33.370;-70.552;2023-02-22T01:24:39;91940.78;;;26.59;29.88
17521;BME280;8878;-33.370;-70.552;2023-02-22T01:27:08;91938.31;;;26.46;30.17
17521;BME280;8878;-33.370;-70.552;2023-02-22T01:29:38;91946.00;;;26.15;29.01
17521;BME280;8878;-33.370;-70.552;2023-02-22T01:32:08;91943.34;;;26.18;29.55
17521;BME280;8878;-33.370;-70.552;2023-02-22T01:34:38;91946.00;;;26.41;29.53
17521;BME280;8878;-33.370;-70.552;2023-02-22T01:37:09;91956.22;;;26.25;28.97
17521;BME280;8878;-33.370;-70.552;2023-02-22T01:39:38;91940.94;;;26.39;29.39
17521;BME280;8878;-33.370;-70.552;2023-02-22T01:42:08;91955.94;;;26.33;29.67
17521;BME280;8878;-33.370;-70.552;2023-02-22T01:44:38;91948.25;;;26.35;29.53
17521;BME280;8878;-33.370;-70.552;2023-02-22T01:47:07;91949.38;;;26.34;29.47
17521;BME280;8878;-33.370;-70.552;2023-02-22T01:49:40;91956.28;;;26.32;30.07
17521;BME280;8878;-33.370;-70.552;2023-02-22T01:52:16;91959.06;;;26.35;30.21
17521;BME280;8878;-33.370;-70.552;2023-02-22T01:54:49;91952.38;;;26.26;31.56
17521;BME280;8878;-33.370;-70.552;2023-02-22T01:57:23;91948.22;;;26.05;33.29
17521;BME280;8878;-33.370;-70.552;2023-02-22T01:59:55;91950.03;;;25.98;33.53
17521;BME280;8878;-33.370;-70.552;2023-02-22T02:02:27;91948.25;;;25.83;34.26
17521;BME280;8878;-33.370;-70.552;2023-02-22T02:04:57;91949.31;;;25.74;34.15
17521;BME280;8878;-33.370;-70.552;2023-02-22T02:07:28;91949.25;;;25.71;33.61
17521;BME280;8878;-33.370;-70.552;2023-02-22T02:09:58;91949.19;;;25.67;34.05
17521;BME280;8878;-33.370;-70.552;2023-02-22T02:12:32;91943.00;;;25.67;32.88
17521;BME280;8878;-33.370;-70.552;2023-02-22T02:15:20;91943.13;;;25.51;34.21
17521;BME280;8878;-33.370;-70.552;2023-02-22T02:17:51;91952.88;;;25.33;35.60
17521;BME280;8878;-33.370;-70.552;2023-02-22T02:20:26;91951.25;;;25.28;35.62
17521;BME280;8878;-33.370;-70.552;2023-02-22T02:23:02;91945.00;;;25.24;35.19
17521;BME280;8878;-33.370;-70.552;2023-02-22T02:26:11;91954.00;;;25.32;34.96
17521;BME280;8878;-33.370;-70.552;2023-02-22T02:29:13;91954.91;;;25.17;34.96
17521;BME280;8878;-33.370;-70.552;2023-02-22T02:32:27;91952.41;;;25.05;35.66
17521;BME280;8878;-33.370;-70.552;2023-02-22T02:35:03;91948.88;;;25.01;35.55
17521;BME280;8878;-33.370;-70.552;2023-02-22T02:37:42;91953.41;;;24.96;35.11
17521;BME280;8878;-33.370;-70.552;2023-02-22T02:40:20;91956.47;;;24.95;35.64
17521;BME280;8878;-33.370;-70.552;2023-02-22T02:42:55;91948.97;;;24.88;35.29
17521;BME280;8878;-33.370;-70.552;2023-02-22T02:45:34;91957.69;;;24.78;34.17
17521;BME280;8878;-33.370;-70.552;2023-02-22T02:48:09;91958.38;;;24.75;34.00
17521;BME280;8878;-33.370;-70.552;2023-02-22T02:50:42;91957.47;;;24.68;36.02
17521;BME280;8878;-33.370;-70.552;2023-02-22T02:53:14;91956.28;;;24.65;35.57
17521;BME280;8878;-33.370;-70.552;2023-02-22T02:55:46;91957.59;;;24.75;34.56
17521;BME280;8878;-33.370;-70.552;2023-02-22T02:58:18;91956.41;;;24.72;35.18
17521;BME280;8878;-33.370;-70.552;2023-02-22T03:00:49;91953.16;;;24.63;34.60
17521;BME280;8878;-33.370;-70.552;2023-02-22T03:03:45;91955.41;;;24.61;34.58
17521;BME280;8878;-33.370;-70.552;2023-02-22T03:09:26;91952.41;;;24.43;35.93
17521;BME280;8878;-33.370;-70.552;2023-02-22T03:12:12;91943.53;;;24.43;36.01
17521;BME280;8878;-33.370;-70.552;2023-02-22T03:14:50;91956.91;;;24.39;36.22
17521;BME280;8878;-33.370;-70.552;2023-02-22T03:17:26;91956.28;;;24.27;36.64
17521;BME280;8878;-33.370;-70.552;2023-02-22T03:20:04;91955.63;;;24.14;37.79
17521;BME280;8878;-33.370;-70.552;2023-02-22T03:22:39;91958.94;;;24.07;38.02
17521;BME280;8878;-33.370;-70.552;2023-02-22T03:25:16;91959.13;;;23.99;38.25
17521;BME280;8878;-33.370;-70.552;2023-02-22T03:27:49;91961.91;;;24.02;36.58
17521;BME280;8878;-33.370;-70.552;2023-02-22T03:30:24;91957.50;;;23.94;37.18
17521;BME280;8878;-33.370;-70.552;2023-02-22T03:33:01;91963.50;;;23.88;37.39
17521;BME280;8878;-33.370;-70.552;2023-02-22T03:35:38;91964.22;;;23.85;34.79
17521;BME280;8878;-33.370;-70.552;2023-02-22T03:38:10;91961.69;;;23.92;35.84
17521;BME280;8878;-33.370;-70.552;2023-02-22T03:40:44;91961.88;;;23.83;36.71
17521;BME280;8878;-33.370;-70.552;2023-02-22T03:43:17;91953.63;;;23.76;37.85
17521;BME280;8878;-33.370;-70.552;2023-02-22T03:45:48;91952.69;;;23.68;37.74
17521;BME280;8878;-33.370;-70.552;2023-02-22T03:48:22;91952.97;;;23.63;38.03
17521;BME280;8878;-33.370;-70.552;2023-02-22T03:50:56;91958.25;;;23.60;37.52
17521;BME280;8878;-33.370;-70.552;2023-02-22T03:53:26;91961.66;;;23.57;35.58
17521;BME280;8878;-33.370;-70.552;2023-02-22T03:55:56;91958.53;;;23.55;35.94
17521;BME280;8878;-33.370;-70.552;2023-02-22T03:58:30;91956.34;;;23.60;36.59
17521;BME280;8878;-33.370;-70.552;2023-02-22T04:01:00;91954.53;;;23.64;35.77
17521;BME280;8878;-33.370;-70.552;2023-02-22T04:03:29;91962.50;;;23.61;34.42
17521;BME280;8878;-33.370;-70.552;2023-02-22T04:06:01;91971.47;;;23.65;36.52
17521;BME280;8878;-33.370;-70.552;2023-02-22T04:08:30;91963.91;;;23.55;37.63
17521;BME280;8878;-33.370;-70.552;2023-02-22T04:10:59;91965.13;;;23.41;37.90
17521;BME280;8878;-33.370;-70.552;2023-02-22T04:13:29;91962.25;;;23.34;38.55
17521;BME280;8878;-33.370;-70.552;2023-02-22T04:15:58;91966.34;;;23.28;38.69
17521;BME280;8878;-33.370;-70.552;2023-02-22T04:18:27;91964.44;;;23.13;38.21
17521;BME280;8878;-33.370;-70.552;2023-02-22T04:20:57;91958.25;;;22.97;35.40
17521;BME280;8878;-33.370;-70.552;2023-02-22T04:23:28;91966.34;;;23.13;37.51
17521;BME280;8878;-33.370;-70.552;2023-02-22T04:25:57;91959.06;;;23.13;37.05
17521;BME280;8878;-33.370;-70.552;2023-02-22T04:28:26;91962.38;;;23.22;36.98
17521;BME280;8878;-33.370;-70.552;2023-02-22T04:30:56;91965.47;;;23.24;37.00
17521;BME280;8878;-33.370;-70.552;2023-02-22T04:33:25;91957.75;;;23.23;37.47
17521;BME280;8878;-33.370;-70.552;2023-02-22T04:35:54;91967.75;;;23.22;36.97
17521;BME280;8878;-33.370;-70.552;2023-02-22T04:38:27;91961.56;;;23.22;37.14
17521;BME280;8878;-33.370;-70.552;2023-02-22T04:40:56;91965.56;;;23.12;37.58
17521;BME280;8878;-33.370;-70.552;2023-02-22T04:43:26;91963.75;;;23.00;37.83
17521;BME280;8878;-33.370;-70.552;2023-02-22T04:45:55;91968.50;;;22.91;38.29
17521;BME280;8878;-33.370;-70.552;2023-02-22T04:48:24;91965.28;;;22.86;38.66
17521;BME280;8878;-33.370;-70.552;2023-02-22T04:50:53;91973.28;;;22.70;39.39
17521;BME280;8878;-33.370;-70.552;2023-02-22T04:53:23;91966.50;;;22.60;39.46
17521;BME280;8878;-33.370;-70.552;2023-02-22T04:55:54;91969.38;;;22.67;39.21
17521;BME280;8878;-33.370;-70.552;2023-02-22T04:58:23;91962.63;;;22.74;38.77
17521;BME280;8878;-33.370;-70.552;2023-02-22T05:00:52;91971.16;;;22.76;38.69
17521;BME280;8878;-33.370;-70.552;2023-02-22T05:03:21;91962.97;;;22.72;38.87
17521;BME280;8878;-33.370;-70.552;2023-02-22T05:05:51;91966.94;;;22.62;38.27
17521;BME280;8878;-33.370;-70.552;2023-02-22T05:08:20;91965.69;;;22.44;37.32
17521;BME280;8878;-33.370;-70.552;2023-02-22T05:10:50;91973.97;;;22.39;36.71
17521;BME280;8878;-33.370;-70.552;2023-02-22T05:13:21;91967.22;;;22.45;39.00
17521;BME280;8878;-33.370;-70.552;2023-02-22T05:15:50;91967.69;;;22.47;38.81
17521;BME280;8878;-33.370;-70.552;2023-02-22T05:18:20;91962.56;;;22.42;38.95
17521;BME280;8878;-33.370;-70.552;2023-02-22T05:20:49;91960.53;;;22.39;40.51
17521;BME280;8878;-33.370;-70.552;2023-02-22T05:23:18;91963.09;;;22.48;39.59
17521;BME280;8878;-33.370;-70.552;2023-02-22T05:25:47;91961.84;;;22.45;38.98
17521;BME280;8878;-33.370;-70.552;2023-02-22T05:28:17;91964.34;;;22.38;39.72
17521;BME280;8878;-33.370;-70.552;2023-02-22T05:30:48;91963.16;;;22.36;40.73
17521;BME280;8878;-33.370;-70.552;2023-02-22T05:33:17;91967.75;;;22.35;40.83
17521;BME280;8878;-33.370;-70.552;2023-02-22T05:35:46;91955.41;;;22.34;39.96
17521;BME280;8878;-33.370;-70.552;2023-02-22T05:38:16;91963.41;;;22.31;39.48
17521;BME280;8878;-33.370;-70.552;2023-02-22T05:40:45;91957.25;;;22.30;40.23
17521;BME280;8878;-33.370;-70.552;2023-02-22T05:43:15;91953.25;;;22.12;39.30
17521;BME280;8878;-33.370;-70.552;2023-02-22T05:45:45;91958.03;;;22.18;39.64
17521;BME280;8878;-33.370;-70.552;2023-02-22T05:48:16;91956.00;;;22.27;40.30
17521;BME280;8878;-33.370;-70.552;2023-02-22T05:50:45;91950.50;;;22.24;40.68
17521;BME280;8878;-33.370;-70.552;2023-02-22T05:53:16;91942.38;;;22.20;41.16
17521;BME280;8878;-33.370;-70.552;2023-02-22T05:55:46;91948.78;;;22.16;40.68
17521;BME280;8878;-33.370;-70.552;2023-02-22T05:58:15;91942.50;;;22.12;41.40
17521;BME280;8878;-33.370;-70.552;2023-02-22T06:00:45;91940.59;;;22.12;41.63
17521;BME280;8878;-33.370;-70.552;2023-02-22T06:03:17;91935.16;;;22.09;41.27
17521;BME280;8878;-33.370;-70.552;2023-02-22T06:05:48;91944.41;;;22.11;41.63
17521;BME280;8878;-33.370;-70.552;2023-02-22T06:08:17;91936.34;;;22.11;41.24
17521;BME280;8878;-33.370;-70.552;2023-02-22T06:10:46;91944.66;;;22.06;41.52
17521;BME280;8878;-33.370;-70.552;2023-02-22T06:13:16;91943.78;;;22.02;41.71
17521;BME280;8878;-33.370;-70.552;2023-02-22T06:15:45;91941.44;;;22.01;41.22
17521;BME280;8878;-33.370;-70.552;2023-02-22T06:18:16;91935.72;;;22.02;41.21
17521;BME280;8878;-33.370;-70.552;2023-02-22T06:20:45;91936.41;;;21.87;42.24
17521;BME280;8878;-33.370;-70.552;2023-02-22T06:23:15;91937.41;;;21.95;41.53
17521;BME280;8878;-33.370;-70.552;2023-02-22T06:25:44;91932.50;;;21.84;42.00
17521;BME280;8878;-33.370;-70.552;2023-02-22T06:28:14;91937.31;;;21.79;41.31
17521;BME280;8878;-33.370;-70.552;2023-02-22T06:30:45;91933.84;;;21.78;41.49
17521;BME280;8878;-33.370;-70.552;2023-02-22T06:33:16;91932.94;;;21.86;41.07
17521;BME280;8878;-33.370;-70.552;2023-02-22T06:35:45;91934.72;;;21.82;40.95
17521;BME280;8878;-33.370;-70.552;2023-02-22T06:38:21;91934.31;;;21.80;41.99
17521;BME280;8878;-33.370;-70.552;2023-02-22T06:40:51;91926.63;;;21.67;42.25
17521;BME280;8878;-33.370;-70.552;2023-02-22T06:43:21;91931.81;;;21.75;41.72
17521;BME280;8878;-33.370;-70.552;2023-02-22T06:45:50;91930.34;;;21.90;41.99
17521;BME280;8878;-33.370;-70.552;2023-02-22T06:48:21;91930.47;;;21.94;41.12
17521;BME280;8878;-33.370;-70.552;2023-02-22T06:50:51;91928.66;;;21.98;40.39
17521;BME280;8878;-33.370;-70.552;2023-02-22T06:53:20;91927.91;;;21.85;40.85
17521;BME280;8878;-33.370;-70.552;2023-02-22T06:55:53;91927.38;;;21.79;41.48
17521;BME280;8878;-33.370;-70.552;2023-02-22T06:58:22;91926.91;;;21.77;41.28
17521;BME280;8878;-33.370;-70.552;2023-02-22T07:00:53;91933.94;;;21.82;40.45
17521;BME280;8878;-33.370;-70.552;2023-02-22T07:03:24;91932.31;;;21.53;41.13
17521;BME280;8878;-33.370;-70.552;2023-02-22T07:05:53;91924.72;;;21.55;41.67
17521;BME280;8878;-33.370;-70.552;2023-02-22T07:08:23;91933.22;;;21.57;41.98
17521;BME280;8878;-33.370;-70.552;2023-02-22T07:10:52;91935.44;;;21.55;41.38
17521;BME280;8878;-33.370;-70.552;2023-02-22T07:13:21;91937.47;;;21.46;41.92
17521;BME280;8878;-33.370;-70.552;2023-02-22T07:15:50;91932.09;;;21.46;42.01
17521;BME280;8878;-33.370;-70.552;2023-02-22T07:18:19;91934.25;;;21.53;42.12
17521;BME280;8878;-33.370;-70.552;2023-02-22T07:20:52;91931.06;;;21.63;41.47
17521;BME280;8878;-33.370;-70.552;2023-02-22T07:23:21;91939.47;;;21.61;41.22
17521;BME280;8878;-33.370;-70.552;2023-02-22T07:25:51;91935.66;;;21.62;41.28
17521;BME280;8878;-33.370;-70.552;2023-02-22T07:28:20;91931.00;;;21.59;41.46
17521;BME280;8878;-33.370;-70.552;2023-02-22T07:30:49;91935.00;;;21.53;41.93
17521;BME280;8878;-33.370;-70.552;2023-02-22T07:33:20;91927.16;;;21.72;40.70
17521;BME280;8878;-33.370;-70.552;2023-02-22T07:35:51;91928.78;;;21.89;40.68
17521;BME280;8878;-33.370;-70.552;2023-02-22T07:38:20;91928.78;;;22.01;40.04
17521;BME280;8878;-33.370;-70.552;2023-02-22T07:40:49;91930.03;;;21.79;40.75
17521;BME280;8878;-33.370;-70.552;2023-02-22T07:43:20;91935.22;;;21.60;41.94
17521;BME280;8878;-33.370;-70.552;2023-02-22T07:45:51;91927.84;;;21.57;41.12
17521;BME280;8878;-33.370;-70.552;2023-02-22T07:48:22;91929.88;;;21.48;41.46
17521;BME280;8878;-33.370;-70.552;2023-02-22T07:50:53;91919.81;;;21.45;41.88
17521;BME280;8878;-33.370;-70.552;2023-02-22T07:53:23;91921.72;;;21.32;41.85
17521;BME280;8878;-33.370;-70.552;2023-02-22T07:55:56;91940.06;;;21.30;40.94
17521;BME280;8878;-33.370;-70.552;2023-02-22T07:58:27;91940.06;;;21.30;40.77
17521;BME280;8878;-33.370;-70.552;2023-02-22T08:00:57;91931.69;;;21.20;42.13
17521;BME280;8878;-33.370;-70.552;2023-02-22T08:03:30;91931.13;;;21.26;41.85
17521;BME280;8878;-33.370;-70.552;2023-02-22T08:06:04;91926.97;;;21.29;42.02
17521;BME280;8878;-33.370;-70.552;2023-02-22T08:08:34;91930.69;;;21.24;42.50
17521;BME280;8878;-33.370;-70.552;2023-02-22T08:11:04;91930.09;;;21.19;43.04
17521;BME280;8878;-33.370;-70.552;2023-02-22T08:13:33;91919.03;;;21.20;42.25
17521;BME280;8878;-33.370;-70.552;2023-02-22T08:16:03;91926.38;;;21.11;41.14
17521;BME280;8878;-33.370;-70.552;2023-02-22T08:18:32;91927.41;;;21.19;41.32
17521;BME280;8878;-33.370;-70.552;2023-02-22T08:21:06;91921.50;;;21.25;41.57
17521;BME280;8878;-33.370;-70.552;2023-02-22T08:23:35;91924.88;;;21.22;41.10
17521;BME280;8878;-33.370;-70.552;2023-02-22T08:26:06;91927.41;;;20.94;40.79
17521;BME280;8878;-33.370;-70.552;2023-02-22T08:28:35;91935.06;;;20.71;41.26
17521;BME280;8878;-33.370;-70.552;2023-02-22T08:31:04;91928.75;;;20.88;41.21
17521;BME280;8878;-33.370;-70.552;2023-02-22T08:33:34;91920.47;;;21.05;42.82
17521;BME280;8878;-33.370;-70.552;2023-02-22T08:36:06;91929.84;;;21.11;44.02
17521;BME280;8878;-33.370;-70.552;2023-02-22T08:38:35;91920.38;;;21.14;43.11
17521;BME280;8878;-33.370;-70.552;2023-02-22T08:41:05;91925.59;;;21.10;43.44
17521;BME280;8878;-33.370;-70.552;2023-02-22T08:43:34;91924.25;;;20.92;42.87
17521;BME280;8878;-33.370;-70.552;2023-02-22T08:46:04;91921.13;;;20.78;42.50
17521;BME280;8878;-33.370;-70.552;2023-02-22T08:48:33;91926.72;;;20.97;41.58
17521;BME280;8878;-33.370;-70.552;2023-02-22T08:51:05;91932.22;;;21.01;41.56
17521;BME280;8878;-33.370;-70.552;2023-02-22T08:53:35;91925.28;;;21.00;42.87
17521;BME280;8878;-33.370;-70.552;2023-02-22T08:56:05;91931.28;;;20.97;40.94
17521;BME280;8878;-33.370;-70.552;2023-02-22T08:58:34;91928.84;;;21.04;41.83
17521;BME280;8878;-33.370;-70.552;2023-02-22T09:01:04;91921.03;;;20.99;43.12
17521;BME280;8878;-33.370;-70.552;2023-02-22T09:03:33;91926.38;;;20.99;42.91
17521;BME280;8878;-33.370;-70.552;2023-02-22T09:06:05;91924.25;;;20.92;43.39
17521;BME280;8878;-33.370;-70.552;2023-02-22T09:08:35;91926.25;;;20.83;44.19
17521;BME280;8878;-33.370;-70.552;2023-02-22T09:11:05;91934.88;;;20.89;43.40
17521;BME280;8878;-33.370;-70.552;2023-02-22T09:13:34;91935.41;;;20.82;43.34
17521;BME280;8878;-33.370;-70.552;2023-02-22T09:16:04;91936.97;;;20.83;43.03
17521;BME280;8878;-33.370;-70.552;2023-02-22T09:18:33;91932.31;;;20.92;42.85
17521;BME280;8878;-33.370;-70.552;2023-02-22T09:21:05;91938.31;;;20.89;43.77
17521;BME280;8878;-33.370;-70.552;2023-02-22T09:23:34;91942.09;;;20.76;43.42
17521;BME280;8878;-33.370;-70.552;2023-02-22T09:26:06;91945.78;;;20.71;40.75
17521;BME280;8878;-33.370;-70.552;2023-02-22T09:28:36;91951.72;;;20.65;43.33
17521;BME280;8878;-33.370;-70.552;2023-02-22T09:31:05;91951.81;;;20.68;43.60
17521;BME280;8878;-33.370;-70.552;2023-02-22T09:33:35;91950.84;;;20.73;42.10
17521;BME280;8878;-33.370;-70.552;2023-02-22T09:36:07;91956.75;;;20.79;43.06
17521;BME280;8878;-33.370;-70.552;2023-02-22T09:38:36;91951.06;;;20.92;42.49
17521;BME280;8878;-33.370;-70.552;2023-02-22T09:41:11;91956.44;;;20.92;42.46
17521;BME280;8878;-33.370;-70.552;2023-02-22T09:43:46;91958.91;;;20.97;41.63
17521;BME280;8878;-33.370;-70.552;2023-02-22T09:46:25;91966.81;;;20.82;42.82
17521;BME280;8878;-33.370;-70.552;2023-02-22T09:49:02;91971.69;;;20.67;43.72
17521;BME280;8878;-33.370;-70.552;2023-02-22T09:51:40;91975.03;;;20.64;44.02
17521;BME280;8878;-33.370;-70.552;2023-02-22T09:54:20;91965.66;;;20.58;43.89
17521;BME280;8878;-33.370;-70.552;2023-02-22T09:56:54;91967.16;;;20.47;44.42
17521;BME280;8878;-33.370;-70.552;2023-02-22T09:59:29;91972.03;;;20.66;43.91
17521;BME280;8878;-33.370;-70.552;2023-02-22T10:02:04;91966.47;;;20.71;43.61
17521;BME280;8878;-33.370;-70.552;2023-02-22T10:04:48;91970.16;;;20.66;44.37
17521;BME280;8878;-33.370;-70.552;2023-02-22T10:07:27;91973.25;;;20.68;44.36
17521;BME280;8878;-33.370;-70.552;2023-02-22T10:09:59;91970.34;;;20.61;45.55
17521;BME280;8878;-33.370;-70.552;2023-02-22T10:12:37;91972.47;;;20.68;45.09
17521;BME280;8878;-33.370;-70.552;2023-02-22T10:15:41;91973.94;;;20.65;45.60
17521;BME280;8878;-33.370;-70.552;2023-02-22T10:18:37;91971.44;;;20.60;44.79
17521;BME280;8878;-33.370;-70.552;2023-02-22T10:21:20;91974.81;;;20.57;44.13
17521;BME280;8878;-33.370;-70.552;2023-02-22T10:24:05;91981.34;;;20.48;43.66
17521;BME280;8878;-33.370;-70.552;2023-02-22T10:26:41;91983.69;;;20.49;42.74
17521;BME280;8878;-33.370;-70.552;2023-02-22T10:29:17;91993.03;;;20.64;42.57
17521;BME280;8878;-33.370;-70.552;2023-02-22T10:31:52;91986.09;;;20.63;41.86
17521;BME280;8878;-33.370;-70.552;2023-02-22T10:34:26;91987.13;;;20.70;41.42
17521;BME280;8878;-33.370;-70.552;2023-02-22T10:37:04;92000.75;;;20.78;41.86
17521;BME280;8878;-33.370;-70.552;2023-02-22T10:39:41;91992.19;;;20.84;43.23
17521;BME280;8878;-33.370;-70.552;2023-02-22T10:42:12;92005.81;;;20.91;41.92
17521;BME280;8878;-33.370;-70.552;2023-02-22T10:44:42;92006.50;;;20.88;41.29
17521;BME280;8878;-33.370;-70.552;2023-02-22T10:47:14;92006.16;;;20.90;39.93
17521;BME280;8878;-33.370;-70.552;2023-02-22T10:49:47;92009.97;;;20.89;39.81
17521;BME280;8878;-33.370;-70.552;2023-02-22T10:52:23;92012.28;;;20.90;39.23
17521;BME280;8878;-33.370;-70.552;2023-02-22T10:54:57;92017.53;;;21.20;40.21
17521;BME280;8878;-33.370;-70.552;2023-02-22T10:57:28;92002.22;;;21.32;39.75
17521;BME280;8878;-33.370;-70.552;2023-02-22T11:00:13;92011.72;;;21.30;40.70
17521;BME280;8878;-33.370;-70.552;2023-02-22T11:02:50;92011.28;;;21.28;42.19
17521;BME280;8878;-33.370;-70.552;2023-02-22T11:05:28;92015.75;;;21.24;42.40
17521;BME280;8878;-33.370;-70.552;2023-02-22T11:08:22;92026.69;;;21.19;43.44
17521;BME280;8878;-33.370;-70.552;2023-02-22T11:10:55;92023.81;;;21.24;43.83
17521;BME280;8878;-33.370;-70.552;2023-02-22T11:13:26;92016.97;;;21.26;43.71
17521;BME280;8878;-33.370;-70.552;2023-02-22T11:15:58;92032.63;;;21.24;42.16
17521;BME280;8878;-33.370;-70.552;2023-02-22T11:18:30;92028.72;;;21.22;42.57
17521;BME280;8878;-33.370;-70.552;2023-02-22T11:21:03;92024.69;;;21.28;42.91
17521;BME280;8878;-33.370;-70.552;2023-02-22T11:23:34;92036.66;;;21.30;41.91
17521;BME280;8878;-33.370;-70.552;2023-02-22T11:26:09;92047.22;;;21.02;42.05
17521;BME280;8878;-33.370;-70.552;2023-02-22T11:28:42;92053.66;;;21.22;40.10
17521;BME280;8878;-33.370;-70.552;2023-02-22T11:31:16;92049.53;;;21.61;40.54
17521;BME280;8878;-33.370;-70.552;2023-02-22T11:33:49;92050.97;;;21.83;41.37
17521;BME280;8878;-33.370;-70.552;2023-02-22T11:36:31;92050.66;;;21.84;39.50
17521;BME280;8878;-33.370;-70.552;2023-02-22T11:39:04;92053.66;;;21.83;38.41
17521;BME280;8878;-33.370;-70.552;2023-02-22T11:41:38;92059.16;;;21.86;38.40
17521;BME280;8878;-33.370;-70.552;2023-02-22T11:44:22;92065.19;;;22.20;38.25
17521;BME280;8878;-33.370;-70.552;2023-02-22T11:46:53;92062.94;;;22.10;38.03
17521;BME280;8878;-33.370;-70.552;2023-02-22T11:49:23;92074.19;;;22.00;37.81
17521;BME280;8878;-33.370;-70.552;2023-02-22T11:52:14;92062.75;;;21.66;38.23
17521;BME280;8878;-33.370;-70.552;2023-02-22T11:54:54;92069.09;;;21.62;38.49
17521;BME280;8878;-33.370;-70.552;2023-02-22T11:57:41;92065.75;;;21.77;37.74
17521;BME280;8878;-33.370;-70.552;2023-02-22T12:00:21;92072.47;;;21.95;37.92
17521;BME280;8878;-33.370;-70.552;2023-02-22T12:06:02;92076.50;;;21.89;38.21
17521;BME280;8878;-33.370;-70.552;2023-02-22T12:08:47;92074.69;;;21.69;39.33
17521;BME280;8878;-33.370;-70.552;2023-02-22T12:11:22;92081.72;;;21.37;39.51
17521;BME280;8878;-33.370;-70.552;2023-02-22T12:14:04;92079.97;;;21.65;39.28
17521;BME280;8878;-33.370;-70.552;2023-02-22T12:16:57;92085.94;;;22.07;39.23
17521;BME280;8878;-33.370;-70.552;2023-02-22T12:19:32;92087.44;;;22.33;39.08
17521;BME280;8878;-33.370;-70.552;2023-02-22T12:22:04;92080.91;;;22.46;39.60
17521;BME280;8878;-33.370;-70.552;2023-02-22T12:24:37;92087.22;;;22.25;39.05
17521;BME280;8878;-33.370;-70.552;2023-02-22T12:27:12;92086.81;;;21.99;40.24
17521;BME280;8878;-33.370;-70.552;2023-02-22T12:29:48;92106.13;;;22.41;39.76
17521;BME280;8878;-33.370;-70.552;2023-02-22T12:32:23;92106.06;;;22.13;39.95
17521;BME280;8878;-33.370;-70.552;2023-02-22T12:34:59;92104.56;;;22.40;40.21
17521;BME280;8878;-33.370;-70.552;2023-02-22T12:37:36;92106.84;;;22.14;40.04
17521;BME280;8878;-33.370;-70.552;2023-02-22T12:40:15;92099.25;;;22.16;40.01
17521;BME280;8878;-33.370;-70.552;2023-02-22T12:42:55;92107.16;;;22.24;39.86
17521;BME280;8878;-33.370;-70.552;2023-02-22T12:45:33;92112.53;;;22.24;40.08
17521;BME280;8878;-33.370;-70.552;2023-02-22T12:48:28;92115.56;;;22.11;39.40
17521;BME280;8878;-33.370;-70.552;2023-02-22T12:51:02;92102.09;;;22.47;39.27
17521;BME280;8878;-33.370;-70.552;2023-02-22T12:53:36;92102.28;;;22.79;38.19
17521;BME280;8878;-33.370;-70.552;2023-02-22T12:56:15;92112.63;;;23.20;36.58
17521;BME280;8878;-33.370;-70.552;2023-02-22T12:58:53;92104.84;;;23.03;36.78
17521;BME280;8878;-33.370;-70.552;2023-02-22T13:01:28;92102.66;;;22.93;36.92
17521;BME280;8878;-33.370;-70.552;2023-02-22T13:04:00;92105.19;;;23.29;37.27
17521;BME280;8878;-33.370;-70.552;2023-02-22T13:06:39;92099.38;;;23.27;36.88
17521;BME280;8878;-33.370;-70.552;2023-02-22T13:09:46;92104.00;;;23.42;36.82
17521;BME280;8878;-33.370;-70.552;2023-02-22T13:12:22;92106.84;;;23.34;36.89
17521;BME280;8878;-33.370;-70.552;2023-02-22T13:15:00;92103.78;;;23.79;37.39
17521;BME280;8878;-33.370;-70.552;2023-02-22T13:17:41;92110.81;;;23.84;37.02